Record high temperature 100.8°F Record low temperature -75.5°F Record high gust 121.0 mph Record high average 61.8 mph Record daily rain 2.61 in. Record low windchill -106.6°F Record high barometer 31.889 in. Record low barometer 23.642 in.
Daily high pressure 30.187 in. Daily low pressure 30.070 in. Daily low windchill 54.6°F Daily high heat index 91.4°F Daily high gust speed 10.9 mph SSW Daily high average speed 6.3 mph SSW
Weather Data
LAST READING AT TIME: 20:30 PM DATE: September 02 2015, time of next update: 08:40 pm
Current WeatherNight time/Dry Current Temperature 71.5°F (21.9°C) (Heat Index 71.5°F ), Apparent temp 73.1°F
Maximum Temperature (since midnight)92.0°F at: 2:30 PM Minimum Temperature (since midnight)54.6°F at: 6:37 AM
Average windspeed (ten minute)0.0 mph Wind Direction (ten minute)SE (135°)
Heat Index 71.5°F Maximum Gust (last hour)0.0 mph at: 7:23 PM
Maximum Gust (since midnight)10.9 mph at: 2:42 PM Maximum 1 minute average (since midnight)6.3 mph at: 2:14 PM
Rainfall (last hour)0.00 in. (0.0 mm) Rainfall (since midnight)0.00 in. (0.0 mm) ---
Rainfall This month 0.01 in. (0.3 mm) Rainfall To date this year 17.31 in. (439.6 mm)
Maximum rain per minute (last hour)0.00 in/min Maximum rain per hour (last 6 hours)0.00 in/hour
Yesterdays rainfall 0.01 in DewPoint 52.9°F (Wet Bulb :61.0°F )
Humidity 52 %, Humidex 75.2°F Barometer corrected to msl30.105 in. (1019.5 hPa)
Pressure change +0.01 in. (last hour) Trend (last hour)STEADY
Pressure change (last 12 hours)-0.07 in Pressure change (last 6 hours)-0.01 in

This page is updated from recent data collected by a DAVIS WMII weather station Use the Reload or Refresh facility on your browser to retrieve the latest data.


Click here for the last 24 hour graph
Click here for the last 48 hour graph
Click here for the last 72 hour graph
Click here for the month to date graph


Weather report/warning/Metars

COLORADO SPRINGS MUNI, CO, United States (KCOS) 38-49N 104-43W 1856M
Sep 02, 2015 - 09:54 PM EDT / 2015.09.03 0154 UTC
Wind: from the S (180 degrees) at 6 MPH (5 KT):0
Visibility: 10 mile(s):0
Sky conditions: mostly cloudy
Temperature: 77.0 F (25.0 C)
Dew Point: 41.0 F (5.0 C)
Relative Humidity: 27%
Pressure (altimeter): 30.12 in. Hg (1019 hPa)
ob: KCOS 030154Z 18005KT 10SM SCT120 BKN250 25/05 A3012 RMK AO2 SLP107 T02500050
cycle: 2
Air Force Academy, CO, United States (KAFF) 38-58N 104-49W 1999M
Sep 02, 2015 - 09:58 PM EDT / 2015.09.03 0158 UTC
Wind: from the E (100 degrees) at 2 MPH (2 KT):0
Visibility: 2 1/2 mile(s):0
Sky conditions: overcast
Weather: haze
Temperature: 74.7 F (23.7 C)
Dew Point: 41.2 F (5.1 C)
Relative Humidity: 29%
Pressure (altimeter): 30.13 in. Hg (1020 hPa)
ob: KAFF 030158Z AUTO 10002KT 2 1/2SM HZ OVC110 24/05 A3013 RMK AO2 VIS 2 1/2V4 SLP102 T02370051
cycle: 2
Fort Carson, CO, United States (KFCS) 38-42N 104-46W 1789M
Sep 02, 2015 - 09:58 PM EDT / 2015.09.03 0158 UTC
Wind: from the WSW (240 degrees) at 2 MPH (2 KT):0
Visibility: 10 mile(s):0
Sky conditions: mostly cloudy
Temperature: 77.2 F (25.1 C)
Dew Point: 43.7 F (6.5 C)
Relative Humidity: 30%
Pressure (altimeter): 30.08 in. Hg (1018 hPa)
ob: KFCS 030158Z AUTO 24002KT 10SM BKN140 25/07 A3008 RMK AO2 SLP128 T02510065 
cycle: 2



The data is logged at two minute intervals, but there is data recorded every minute. Best viewed in 800 x 600 and True colour.

Use the RELOAD facility on your browser to retrieve the latest data.

Click here for a daily update of the averages/extremes to date for the month
Created by "Weather Display" software version 10.37R Build 78 at this start time/date 03:19 am 8/19/2015